createdAt,value
2019-02-20T00:01:01.363Z,10.28
2019-02-20T00:03:30.571Z,10.09
2019-02-20T00:06:00.032Z,10.36
2019-02-20T00:08:29.224Z,10.44
2019-02-20T00:10:58.476Z,10.43
2019-02-20T00:13:27.679Z,10.43
2019-02-20T00:15:56.930Z,10.49
2019-02-20T00:18:26.176Z,10.46
2019-02-20T00:20:55.468Z,10.50
2019-02-20T00:23:24.679Z,10.51
2019-02-20T00:25:54.232Z,10.48
2019-02-20T00:28:23.463Z,10.42
2019-02-20T00:30:56.310Z,10.39
2019-02-20T00:33:25.615Z,10.43
2019-02-20T00:35:54.891Z,10.37
2019-02-20T00:38:24.169Z,10.38
2019-02-20T00:40:53.407Z,10.35
2019-02-20T00:43:22.623Z,10.34
2019-02-20T00:46:20.746Z,10.34
2019-02-20T00:48:54.699Z,10.37
2019-02-20T00:51:48.214Z,10.41
2019-02-20T00:54:17.431Z,10.42
2019-02-20T00:56:46.752Z,10.35
2019-02-20T00:59:16.947Z,10.38
2019-02-20T01:01:46.412Z,10.32
2019-02-20T01:04:15.625Z,10.31
2019-02-20T01:06:45.394Z,10.39
2019-02-20T01:09:14.623Z,10.36
2019-02-20T01:11:43.831Z,10.32
2019-02-20T01:14:13.108Z,10.32
2019-02-20T01:16:42.364Z,10.31
2019-02-20T01:19:11.919Z,10.36
2019-02-20T01:21:41.145Z,10.28
2019-02-20T01:24:10.394Z,10.18
2019-02-20T01:26:39.602Z,10.19
2019-02-20T01:29:08.872Z,10.19
2019-02-20T01:31:38.088Z,10.31
2019-02-20T01:34:07.395Z,10.32
2019-02-20T01:36:37.699Z,10.28
2019-02-20T01:39:07.771Z,10.29
2019-02-20T01:41:37.269Z,10.28
2019-02-20T01:44:06.537Z,10.22
2019-02-20T01:46:37.018Z,10.21
2019-02-20T01:49:06.229Z,10.18
2019-02-20T01:51:35.441Z,10.23
2019-02-20T01:54:04.725Z,10.19
2019-02-20T01:56:34.009Z,10.22
2019-02-20T01:59:05.619Z,10.18
2019-02-20T02:01:34.919Z,10.18
2019-02-20T02:04:07.904Z,10.28
2019-02-20T02:06:37.245Z,10.20
2019-02-20T02:09:08.045Z,10.14
2019-02-20T02:11:37.253Z,10.12
2019-02-20T02:14:06.540Z,10.09
2019-02-20T02:16:35.748Z,10.20
2019-02-20T02:19:05.026Z,10.13
2019-02-20T02:21:34.283Z,10.18
2019-02-20T02:24:03.626Z,10.07
2019-02-20T02:26:32.874Z,10.19
2019-02-20T02:29:02.165Z,10.28
2019-02-20T02:31:31.689Z,10.27
2019-02-20T02:34:01.060Z,10.23
2019-02-20T02:36:30.306Z,10.19
2019-02-20T02:38:59.612Z,10.12
2019-02-20T02:55:52.654Z,10.19
2019-02-20T02:58:22.243Z,10.18
2019-02-20T03:00:51.505Z,10.17
2019-02-20T03:03:20.719Z,10.13
2019-02-20T03:05:50.014Z,10.15
2019-02-20T03:08:19.205Z,10.07
2019-02-20T03:10:48.473Z,10.01
2019-02-20T03:13:17.692Z,10.01
2019-02-20T03:15:46.969Z,10.05
2019-02-20T03:18:16.191Z,9.98
2019-02-20T03:20:45.447Z,9.95
2019-02-20T03:23:14.962Z,9.91
2019-02-20T03:25:44.228Z,9.91
2019-02-20T03:28:13.446Z,9.93
2019-02-20T03:30:51.753Z,9.99
2019-02-20T03:33:20.972Z,9.95
2019-02-20T03:35:50.261Z,9.91
2019-02-20T03:38:29.662Z,9.97
2019-02-20T03:40:50.467Z,10.04
2019-02-20T03:43:59.061Z,10.05
2019-02-20T03:46:28.364Z,10.05
2019-02-20T03:48:57.585Z,9.95
2019-02-20T03:51:26.879Z,10.00
2019-02-20T03:53:56.115Z,10.02
2019-02-20T03:56:45.793Z,10.15
2019-02-20T03:59:15.047Z,10.02
2019-02-20T04:01:44.312Z,10.06
2019-02-20T04:04:13.524Z,10.02
2019-02-20T04:06:42.777Z,9.96
2019-02-20T04:09:11.983Z,9.85
2019-02-20T04:11:41.268Z,9.85
2019-02-20T04:14:10.480Z,9.79
2019-02-20T04:16:39.766Z,9.84
2019-02-20T04:19:08.984Z,10.00
2019-02-20T04:21:38.262Z,10.08
2019-02-20T04:24:07.814Z,10.03
2019-02-20T04:34:38.692Z,9.81
2019-02-20T04:37:08.002Z,9.87
2019-02-20T04:39:37.209Z,9.79
2019-02-20T04:42:06.490Z,9.78
2019-02-20T04:44:35.690Z,9.78
2019-02-20T04:47:04.960Z,9.67
2019-02-20T04:49:34.188Z,9.46
2019-02-20T04:52:03.463Z,9.27
2019-02-20T04:54:32.689Z,9.39
2019-02-20T04:57:02.007Z,9.31
2019-02-20T04:59:31.239Z,9.33
2019-02-20T05:02:00.500Z,9.36
2019-02-20T05:04:30.002Z,9.37
2019-02-20T05:06:59.598Z,9.40
2019-02-20T05:09:28.897Z,9.43
2019-02-20T05:28:30.626Z,9.09
2019-02-20T05:31:00.139Z,9.38
2019-02-20T05:42:00.336Z,9.68
2019-02-20T05:44:30.575Z,9.60
2019-02-20T05:46:59.831Z,9.62
2019-02-20T05:49:29.066Z,9.66
2019-02-20T05:51:58.309Z,9.58
2019-02-20T05:54:34.067Z,9.70
2019-02-20T05:56:58.564Z,9.65
2019-02-20T05:59:27.778Z,9.78
2019-02-20T06:01:57.065Z,9.84
2019-02-20T06:07:33.641Z,9.87
2019-02-20T06:10:02.855Z,9.71
2019-02-20T06:12:32.136Z,9.70
2019-02-20T06:15:01.358Z,9.76
2019-02-20T06:17:30.602Z,9.93
2019-02-20T06:20:00.308Z,9.64
2019-02-20T06:22:29.604Z,9.35
2019-02-20T06:24:58.816Z,9.04
2019-02-20T06:30:51.121Z,8.76
2019-02-20T06:33:20.445Z,8.60
2019-02-20T06:35:49.676Z,8.54
2019-02-20T06:38:18.989Z,8.52
2019-02-20T06:40:48.214Z,8.44
2019-02-20T06:43:17.480Z,8.49
2019-02-20T06:45:46.692Z,8.43
2019-02-20T06:48:15.993Z,8.45
2019-02-20T06:50:45.233Z,8.43
2019-02-20T06:53:14.544Z,8.52
2019-02-20T06:55:44.016Z,8.63
2019-02-20T06:58:13.333Z,8.79
2019-02-20T07:00:42.962Z,8.73
2019-02-20T07:06:25.769Z,8.65
2019-02-20T07:12:44.746Z,8.64
2019-02-20T07:15:52.091Z,8.60
2019-02-20T07:19:00.828Z,8.55
2019-02-20T07:22:08.220Z,8.57
2019-02-20T07:25:16.859Z,8.57
2019-02-20T07:28:24.290Z,8.50
2019-02-20T07:30:53.567Z,8.48
2019-02-20T07:36:02.084Z,8.56
2019-02-20T07:38:32.841Z,8.53
2019-02-20T07:41:03.658Z,8.45
2019-02-20T07:43:32.876Z,8.52
2019-02-20T07:46:02.515Z,8.49
2019-02-20T07:48:31.782Z,8.52
2019-02-20T07:51:00.994Z,8.47
2019-02-20T07:53:30.283Z,8.46
2019-02-20T07:56:00.140Z,8.47
2019-02-20T07:58:29.612Z,8.50
2019-02-20T08:03:55.534Z,8.57
2019-02-20T08:06:25.131Z,8.59
2019-02-20T08:08:54.762Z,8.58
2019-02-20T08:11:24.239Z,8.64
2019-02-20T08:19:58.713Z,9.03
2019-02-20T08:22:27.969Z,8.93
2019-02-20T08:24:57.311Z,8.96
2019-02-20T08:27:26.674Z,8.99
2019-02-20T08:29:55.981Z,9.14
2019-02-20T08:32:25.247Z,9.17
2019-02-20T08:34:54.547Z,9.35
2019-02-20T08:37:23.851Z,9.41
2019-02-20T08:39:53.800Z,9.45
2019-02-20T08:42:23.071Z,9.61
2019-02-20T08:44:52.889Z,9.71
2019-02-20T08:47:22.190Z,9.86
2019-02-20T08:49:51.762Z,9.81
2019-02-20T08:52:21.333Z,9.83
2019-02-20T08:54:50.695Z,9.85
2019-02-20T09:02:58.166Z,10.22
2019-02-20T09:05:27.801Z,10.22
2019-02-20T09:07:57.050Z,10.19
2019-02-20T09:10:36.517Z,10.01
2019-02-20T09:18:44.128Z,10.33
2019-02-20T09:21:13.467Z,10.49
2019-02-20T09:23:43.219Z,10.55
2019-02-20T09:26:32.369Z,10.53
2019-02-20T09:29:01.656Z,10.60
2019-02-20T09:31:30.872Z,10.61
2019-02-20T09:34:00.121Z,10.71
2019-02-20T09:42:33.257Z,11.38
2019-02-20T09:45:02.577Z,11.44
2019-02-20T09:47:31.857Z,11.36
2019-02-20T09:50:01.525Z,11.23
2019-02-20T09:52:30.849Z,11.17
2019-02-20T09:55:00.290Z,11.21
2019-02-20T09:57:29.697Z,11.30
2019-02-20T10:00:18.286Z,11.36
2019-02-20T10:02:47.887Z,11.46
2019-02-20T10:05:17.632Z,11.50
2019-02-20T10:07:47.063Z,11.60
2019-02-20T10:10:16.483Z,11.60
2019-02-20T10:12:46.318Z,11.50
2019-02-20T10:15:15.923Z,11.45
2019-02-20T10:23:24.812Z,11.30
2019-02-20T10:26:00.902Z,11.29
2019-02-20T10:28:47.422Z,11.39
2019-02-20T10:31:17.293Z,11.53
2019-02-20T10:33:46.628Z,11.74
2019-02-20T10:36:16.832Z,11.68
2019-02-20T10:38:46.709Z,11.57
2019-02-20T10:41:16.181Z,11.21
2019-02-20T10:43:45.592Z,11.23
2019-02-20T10:46:15.084Z,11.24
2019-02-20T10:48:44.525Z,11.43
2019-02-20T10:51:15.179Z,11.62
2019-02-20T10:53:44.528Z,11.80
2019-02-20T10:56:15.928Z,11.93
2019-02-20T10:58:45.554Z,11.97
2019-02-20T11:04:19.984Z,12.16
2019-02-20T11:18:55.237Z,11.85
2019-02-20T11:21:25.032Z,11.84
2019-02-20T11:23:54.560Z,11.87
2019-02-20T11:26:23.951Z,11.75
2019-02-20T11:28:53.543Z,11.80
2019-02-20T11:31:22.849Z,11.95
2019-02-20T11:33:52.115Z,11.67
2019-02-20T11:36:21.399Z,11.55
2019-02-20T11:38:53.260Z,11.46
2019-02-20T11:44:21.260Z,11.32
2019-02-20T11:46:51.309Z,11.20
2019-02-20T11:49:24.674Z,11.13
2019-02-20T11:52:18.490Z,11.12
2019-02-20T11:57:45.673Z,11.28
2019-02-20T12:03:17.694Z,11.59
2019-02-20T12:06:10.560Z,11.75
2019-02-20T12:08:46.931Z,11.81
2019-02-20T12:11:24.141Z,11.72
2019-02-20T12:14:24.526Z,11.62
2019-02-20T12:19:33.666Z,11.68
2019-02-20T12:22:03.006Z,11.75
2019-02-20T12:24:32.947Z,11.84
2019-02-20T12:27:03.916Z,11.83
2019-02-20T12:29:33.219Z,11.82
2019-02-20T12:34:58.523Z,11.94
2019-02-20T12:37:29.152Z,11.96
2019-02-20T12:39:58.462Z,11.99
2019-02-20T12:42:28.616Z,12.03
2019-02-20T12:44:59.251Z,12.07
2019-02-20T12:47:28.528Z,12.08
2019-02-20T12:49:57.743Z,12.08
2019-02-20T12:52:26.956Z,12.06
2019-02-20T12:54:56.217Z,11.93
2019-02-20T12:57:25.571Z,11.81
2019-02-20T12:59:54.840Z,11.86
2019-02-20T13:02:24.054Z,11.92
2019-02-20T13:04:53.325Z,12.13
2019-02-20T13:07:22.613Z,12.22
2019-02-20T13:09:51.838Z,12.40
2019-02-20T13:12:21.396Z,12.51
2019-02-20T13:14:50.625Z,12.41
2019-02-20T13:17:19.898Z,12.40
2019-02-20T13:19:49.420Z,12.60
2019-02-20T13:22:18.715Z,12.79
2019-02-20T13:25:07.152Z,12.96
2019-02-20T13:27:36.429Z,13.12
2019-02-20T13:30:05.988Z,13.15
2019-02-20T13:32:35.248Z,13.26
2019-02-20T13:35:05.122Z,13.37
2019-02-20T13:37:34.756Z,13.44
2019-02-20T13:40:04.297Z,13.48
2019-02-20T13:42:33.935Z,13.45
2019-02-20T13:51:08.457Z,13.65
2019-02-20T13:53:46.085Z,13.39
2019-02-20T13:56:08.918Z,13.28
2019-02-20T13:58:38.266Z,13.47
2019-02-20T14:01:07.486Z,13.56
2019-02-20T14:03:36.772Z,13.72
2019-02-20T14:06:05.975Z,14.03
2019-02-20T14:08:35.578Z,14.05
2019-02-20T14:11:04.849Z,14.17
2019-02-20T14:13:34.070Z,14.14
2019-02-20T14:16:03.340Z,14.32
2019-02-20T14:18:32.589Z,14.48
2019-02-20T14:21:01.872Z,14.56
2019-02-20T14:23:31.373Z,14.61
2019-02-20T14:26:00.939Z,14.77
2019-02-20T14:28:30.240Z,14.27
2019-02-20T14:30:59.755Z,14.12
2019-02-20T14:33:28.944Z,13.95
2019-02-20T14:35:58.220Z,13.58
2019-02-20T14:38:27.438Z,13.46
2019-02-20T14:40:56.740Z,13.50
2019-02-20T14:43:26.224Z,13.50
2019-02-20T14:45:55.655Z,13.80
2019-02-20T14:48:24.959Z,14.04
2019-02-20T14:50:54.241Z,14.40
2019-02-20T14:53:23.507Z,14.53
2019-02-20T14:55:52.817Z,14.70
2019-02-20T14:58:22.606Z,14.40
2019-02-20T15:00:51.933Z,14.24
2019-02-20T15:03:21.192Z,14.43
2019-02-20T15:05:50.440Z,14.70
2019-02-20T15:08:19.771Z,14.72
2019-02-20T15:10:50.762Z,14.54
2019-02-20T15:13:20.353Z,14.26
2019-02-20T15:15:50.048Z,14.11
2019-02-20T15:18:19.964Z,14.16
2019-02-20T15:20:49.183Z,14.20
2019-02-20T15:23:18.473Z,14.16
2019-02-20T15:25:48.406Z,14.28
2019-02-20T15:28:17.970Z,14.33
2019-02-20T15:30:47.205Z,14.22
2019-02-20T15:33:16.490Z,14.17
2019-02-20T15:35:45.715Z,14.11
2019-02-20T15:38:15.012Z,14.04
2019-02-20T15:40:45.003Z,13.94
2019-02-20T15:43:14.838Z,13.89
2019-02-20T15:45:44.456Z,13.87
2019-02-20T15:48:13.869Z,13.83
2019-02-20T15:50:43.157Z,13.84
2019-02-20T15:53:12.459Z,13.81
2019-02-20T15:55:41.685Z,13.91
2019-02-20T15:58:11.036Z,13.90
2019-02-20T16:00:41.467Z,13.71
2019-02-20T16:03:11.566Z,13.55
2019-02-20T16:05:41.287Z,13.29
2019-02-20T16:08:10.603Z,13.22
2019-02-20T16:10:39.813Z,13.05
2019-02-20T16:13:09.035Z,13.08
2019-02-20T16:15:38.710Z,12.92
2019-02-20T16:18:09.112Z,12.80
2019-02-20T16:20:38.705Z,12.66
2019-02-20T16:23:08.162Z,12.68
2019-02-20T16:25:37.929Z,12.56
2019-02-20T16:28:07.152Z,12.50
2019-02-20T16:30:38.199Z,12.52
2019-02-20T16:33:07.454Z,12.51
2019-02-20T16:35:37.008Z,12.45
2019-02-20T16:38:06.280Z,12.33
2019-02-20T16:40:35.572Z,12.25
2019-02-20T16:43:04.895Z,12.04
2019-02-20T16:45:36.564Z,11.99
2019-02-20T16:48:06.238Z,11.98
2019-02-20T16:50:35.478Z,11.99
2019-02-20T16:55:39.213Z,12.02
2019-02-20T16:58:08.630Z,11.99
2019-02-20T17:00:38.012Z,11.99
2019-02-20T17:03:07.289Z,12.02
2019-02-20T17:05:36.511Z,12.03
2019-02-20T17:08:45.156Z,11.99
2019-02-20T17:11:14.710Z,11.98
2019-02-20T17:13:44.016Z,11.98
2019-02-20T17:16:13.229Z,12.02
2019-02-20T17:18:42.499Z,12.08
2019-02-20T17:21:11.740Z,12.02
2019-02-20T17:23:41.444Z,11.93
2019-02-20T17:26:50.039Z,11.95
2019-02-20T17:29:19.581Z,11.93
2019-02-20T17:32:28.263Z,11.85
2019-02-20T17:34:57.482Z,11.78
2019-02-20T17:37:29.107Z,11.84
2019-02-20T17:39:58.386Z,11.62
2019-02-20T17:42:27.617Z,11.70
2019-02-20T17:44:56.907Z,11.70
2019-02-20T17:47:26.130Z,11.66
2019-02-20T17:49:55.555Z,11.88
2019-02-20T17:52:24.975Z,11.88
2019-02-20T17:54:54.263Z,11.89
2019-02-20T17:57:23.536Z,11.88
2019-02-20T17:59:52.809Z,11.84
2019-02-20T18:02:22.113Z,11.76
2019-02-20T18:04:51.451Z,11.81
2019-02-20T18:07:20.672Z,11.81
2019-02-20T18:09:49.991Z,11.75
2019-02-20T18:12:19.207Z,11.69
2019-02-20T18:14:48.581Z,11.70
2019-02-20T18:17:17.899Z,11.74
2019-02-20T18:19:47.478Z,11.71
2019-02-20T18:22:16.713Z,11.69
2019-02-20T18:24:46.352Z,11.71
2019-02-20T18:27:15.586Z,11.63
2019-02-20T18:29:44.873Z,11.71
2019-02-20T18:32:14.085Z,11.80
2019-02-20T18:34:43.379Z,11.80
2019-02-20T18:37:12.617Z,11.83
2019-02-20T18:39:42.193Z,11.69
2019-02-20T18:42:11.414Z,11.69
2019-02-20T18:44:40.740Z,11.63
2019-02-20T18:47:09.947Z,11.75
2019-02-20T18:49:39.362Z,11.54
2019-02-20T18:52:08.658Z,11.25
2019-02-20T18:54:37.960Z,11.30
2019-02-20T18:57:07.470Z,11.45
2019-02-20T18:59:36.862Z,11.44
2019-02-20T19:02:06.113Z,11.53
2019-02-20T19:04:35.439Z,11.51
2019-02-20T19:07:11.211Z,11.25
2019-02-20T19:09:41.213Z,11.33
2019-02-20T19:12:32.940Z,11.42
2019-02-20T19:15:40.791Z,11.28
2019-02-20T19:18:48.165Z,11.17
2019-02-20T19:21:39.759Z,11.26
2019-02-20T19:24:47.085Z,11.36
2019-02-20T19:27:54.423Z,11.48
2019-02-20T19:30:48.702Z,11.41
2019-02-20T19:33:55.981Z,11.47
2019-02-20T19:37:03.515Z,11.51
2019-02-20T19:39:39.547Z,11.48
2019-02-20T19:42:46.914Z,11.44
2019-02-20T19:45:39.594Z,11.44
2019-02-20T19:48:46.966Z,11.45
2019-02-20T19:51:54.281Z,11.41
2019-02-20T19:54:35.249Z,11.30
2019-02-20T19:57:28.522Z,11.15
2019-02-20T20:00:35.955Z,10.94
2019-02-20T20:03:43.299Z,10.74
2019-02-20T20:06:50.770Z,10.44
2019-02-20T20:09:42.795Z,10.24
2019-02-20T20:12:43.251Z,10.10
2019-02-20T20:15:50.652Z,10.10
2019-02-20T20:18:44.059Z,10.12
2019-02-20T20:21:38.883Z,10.08
2019-02-20T20:24:46.222Z,10.14
2019-02-20T20:27:53.477Z,10.16
2019-02-20T20:31:01.869Z,10.39
2019-02-20T20:34:09.252Z,10.43
2019-02-20T20:37:16.554Z,10.47
2019-02-20T20:40:13.151Z,10.64
2019-02-20T20:43:08.118Z,10.62
2019-02-20T20:46:15.471Z,10.76
2019-02-20T20:49:22.734Z,10.75
2019-02-20T20:52:24.951Z,10.79
2019-02-20T20:55:32.254Z,10.76
2019-02-20T20:58:39.880Z,10.80
2019-02-20T21:01:47.207Z,10.88
2019-02-20T21:04:54.761Z,10.80
2019-02-20T21:08:02.214Z,10.54
2019-02-20T21:11:04.332Z,10.38
2019-02-20T21:14:11.659Z,10.37
2019-02-20T21:17:18.926Z,10.07
2019-02-20T21:20:13.932Z,10.02
2019-02-20T21:23:21.199Z,9.84
2019-02-20T21:26:28.537Z,9.71
2019-02-20T21:29:28.114Z,9.61
2019-02-20T21:32:28.723Z,9.54
2019-02-20T21:35:19.327Z,9.43
2019-02-20T21:38:27.042Z,9.32
2019-02-20T21:41:18.376Z,9.27
2019-02-20T21:44:19.629Z,9.31
2019-02-20T21:47:12.039Z,9.21
2019-02-20T21:50:19.303Z,9.11
2019-02-20T21:53:26.899Z,9.18
2019-02-20T21:56:34.158Z,9.27
2019-02-20T21:59:41.557Z,9.27
2019-02-20T22:02:48.885Z,9.42
2019-02-20T22:05:40.985Z,9.55
2019-02-20T22:08:48.303Z,9.35
2019-02-20T22:11:55.565Z,9.18
2019-02-20T22:15:02.888Z,9.12
2019-02-20T22:17:48.373Z,9.07
2019-02-20T22:20:55.699Z,9.00
2019-02-20T22:23:46.689Z,9.10
2019-02-20T22:26:54.003Z,9.18
2019-02-20T22:29:58.051Z,9.04
2019-02-20T22:33:05.378Z,8.87
2019-02-20T22:36:12.644Z,8.83
2019-02-20T22:42:26.809Z,8.76
2019-02-20T22:45:34.397Z,8.66
2019-02-20T22:48:29.034Z,8.71
2019-02-20T22:51:37.322Z,8.72
2019-02-20T22:54:35.051Z,8.92
2019-02-20T22:57:15.781Z,8.84
2019-02-20T23:00:34.304Z,8.79
2019-02-20T23:03:34.083Z,8.74
2019-02-20T23:06:31.765Z,8.64
2019-02-20T23:09:39.311Z,8.65
2019-02-20T23:12:33.531Z,8.75
2019-02-20T23:15:02.715Z,8.68
2019-02-20T23:20:34.186Z,8.54
2019-02-20T23:23:03.522Z,8.46
2019-02-20T23:25:32.772Z,8.42
2019-02-20T23:28:02.081Z,8.34
2019-02-20T23:30:31.393Z,8.34
2019-02-20T23:33:00.847Z,8.27
2019-02-20T23:35:30.031Z,8.22
2019-02-20T23:37:59.248Z,8.28
2019-02-20T23:40:28.593Z,8.26
2019-02-20T23:42:57.825Z,8.32
2019-02-20T23:45:27.108Z,8.27
2019-02-20T23:47:56.620Z,8.19
2019-02-20T23:50:25.892Z,8.07
2019-02-20T23:52:55.472Z,8.05
2019-02-20T23:55:24.820Z,8.07
2019-02-20T23:57:54.082Z,8.04
